Terminal Aerodrome Forecast
Issued by NWS San Angelo, TX

Home | Current Version | Previous Version | Text Only | Print | Product List | Glossary On
Versions: 1 2 3 4 5 6 7 8 9 10 11 12 13 14 15
449
FTUS44 KSJT 311723
TAFABI
TAF
KABI 311723Z 3118/0118 04005KT P6SM FEW040
     FM311900 06006KT P6SM BKN060
     FM010100 VRB04KT P6SM BKN100=

USA.gov is the U.S. government's official web portal to all federal, state and local government web resources and services.